Dryden, Texas
Current Conditions -  °F | °C
As of 4:15 AM on Tuesday 21 Oct 2014 (Local Time) from KOZA Reporting Station
Clear Clear  
Wind Chill: 59°   Ceiling: Unl
Heat Index: 59°   Visibility: 10mi
Dew Point: 54°   Wind: 3mph
Humidity: 82%   Direction: 120°ESE
Pressure: 30.1"   Gusts: NA
Location:  30.05°N, 102.11°W
Report Text: KOZA 210915Z AUTO 12003KT 10SM CLR 15/12 A3010 RMK AO2
Loading
Personal Weather Stations






























Interactive Weather Map
Tropical Storm Tracking
New forecast layout! Learn more

10-Day Weather Forecast

Advertisements
Track Severe Weather on mobile